Time;durP1;ratioP1;P1;durP2;ratioP2;P2;SDS_P1;SDS_P2;PMS_P1;PMS_P2;Temp;Humidity;BMP_temperature;BMP_pressure;BME280_temperature;BME280_humidity;BME280_pressure;Samples;Min_cycle;Max_cycle;Signal;HPM_P1;HPM_P2
2023/10/04 00:02:54;;;;;;;5.18;1.80;;;15.40;99.60;;;14.07;92.45;100496.88;10212669;28;98769;-86
2023/10/04 00:07:59;;;;;;;5.90;2.13;;;15.30;99.50;;;14.04;93.06;100486.56;10226730;28;96698;-86
2023/10/04 00:13:03;;;;;;;4.15;1.90;;;15.30;99.70;;;14.00;93.29;100482.59;10212208;28;97523;-86
2023/10/04 00:18:06;;;;;;;3.65;1.88;;;15.30;99.80;;;14.00;93.28;100479.09;10196764;28;97355;-86
2023/10/04 00:23:13;;;;;;;5.72;1.75;;;15.20;99.80;;;13.98;93.51;100492.66;10206282;28;97021;-86
2023/10/04 00:28:17;;;;;;;4.20;1.83;;;15.30;99.90;;;13.94;93.28;100494.00;10174884;28;97720;-86
2023/10/04 00:33:21;;;;;;;4.23;1.87;;;15.20;99.90;;;13.89;93.49;100505.25;10195848;28;97178;-86
2023/10/04 00:38:27;;;;;;;3.65;1.73;;;15.20;99.90;;;13.83;93.86;100499.78;10186128;28;96591;-86
2023/10/04 00:43:31;;;;;;;5.75;2.22;;;15.10;99.90;;;13.76;94.40;100517.56;10152745;28;96708;-86
2023/10/04 00:48:35;;;;;;;6.45;2.28;;;15.00;99.90;;;13.75;94.57;100513.25;10174254;28;97874;-86
2023/10/04 00:53:40;;;;;;;4.75;2.35;;;14.90;99.90;;;13.66;94.66;100525.81;10200385;28;96674;-86
2023/10/04 00:58:45;;;;;;;5.43;2.22;;;14.90;99.90;;;13.59;95.21;100515.03;10203027;28;96662;-86
2023/10/04 01:03:50;;;;;;;4.32;2.22;;;14.80;99.90;;;13.57;95.56;100532.25;10220785;28;97748;-86
2023/10/04 01:08:55;;;;;;;4.30;2.30;;;14.80;99.90;;;13.52;96.21;100519.44;10185328;28;97074;-86
2023/10/04 01:14:18;;;;;;;5.20;2.50;;;14.80;99.90;;;13.53;96.58;100536.28;10208797;28;98771;-87
2023/10/04 01:19:22;;;;;;;8.23;2.35;;;14.70;99.90;;;13.48;96.91;100534.13;10222383;28;97922;-87
2023/10/04 01:24:26;;;;;;;6.63;2.60;;;14.70;99.90;;;13.46;97.68;100530.81;10211480;28;96613;-87
2023/10/04 01:29:31;;;;;;;7.80;2.77;;;14.70;99.90;;;13.47;97.99;100520.97;10198352;28;96969;-86
2023/10/04 01:34:36;;;;;;;4.57;2.67;;;14.60;99.90;;;13.44;97.79;100522.16;10216080;28;96892;-87
2023/10/04 01:39:44;;;;;;;4.68;2.60;;;14.60;99.90;;;13.44;98.25;100532.03;10198716;28;96696;-86
2023/10/04 01:44:48;;;;;;;3.50;2.10;;;14.70;99.90;;;13.43;98.30;100533.84;10188706;28;96741;-87
2023/10/04 01:49:52;;;;;;;7.43;2.73;;;14.60;99.90;;;13.45;98.40;100525.66;10202262;28;97583;-86
2023/10/04 01:54:56;;;;;;;5.53;2.43;;;14.70;99.90;;;13.45;98.76;100555.03;10188765;28;97092;-87
2023/10/04 01:59:59;;;;;;;4.17;2.10;;;14.70;99.90;;;13.49;99.51;100557.16;10171160;28;96836;-86
2023/10/04 02:05:06;;;;;;;8.80;2.55;;;14.70;99.90;;;13.74;100.00;100568.50;10153243;28;96660;-86
2023/10/04 02:10:12;;;;;;;5.78;3.05;;;14.90;99.90;;;14.54;100.00;100572.44;10184979;28;96611;-86
2023/10/04 02:15:17;;;;;;;4.70;2.58;;;15.50;99.90;;;15.50;100.00;100576.69;10170414;28;96623;-86
2023/10/04 02:20:25;;;;;;;5.28;2.05;;;16.50;99.90;;;16.24;96.04;100579.81;10217994;28;97431;-87
2023/10/04 02:25:29;;;;;;;5.10;2.10;;;17.30;99.90;;;16.74;89.74;100587.81;10208663;28;97905;-86
2023/10/04 02:30:33;;;;;;;6.20;2.45;;;17.80;99.90;;;17.07;85.58;100593.31;10160815;28;99024;-87
2023/10/04 02:35:43;;;;;;;3.58;1.50;;;18.10;99.80;;;17.31;83.19;100605.38;10190555;28;98332;-86
2023/10/04 02:40:48;;;;;;;4.27;1.77;;;18.40;99.10;;;17.43;80.94;100608.31;10211260;28;98619;-86
2023/10/04 02:45:53;;;;;;;4.22;1.70;;;18.50;98.20;;;17.46;79.72;100621.34;10227129;28;96696;-86
2023/10/04 02:50:58;;;;;;;3.25;1.25;;;18.60;98.00;;;17.48;78.00;100632.69;10196484;28;98259;-86
2023/10/04 02:56:07;;;;;;;2.92;1.48;;;18.60;97.40;;;17.49;76.49;100639.72;10175167;28;96857;-87
2023/10/04 03:01:20;;;;;;;4.93;1.05;;;18.60;96.00;;;17.44;75.88;100640.31;10206283;28;96938;-87
2023/10/04 03:06:25;;;;;;;1.95;0.90;;;18.60;96.70;;;17.49;72.62;100640.56;10206637;28;96846;-87
2023/10/04 03:11:29;;;;;;;2.50;0.90;;;18.60;94.70;;;17.54;70.55;100638.09;10207963;28;96596;-86
2023/10/04 03:16:37;;;;;;;3.65;0.93;;;18.60;93.50;;;17.62;70.67;100645.13;10207084;28;98136;-86
2023/10/04 03:21:45;;;;;;;1.77;0.70;;;18.70;94.10;;;17.68;69.01;100644.31;10191588;28;96551;-87
2023/10/04 03:26:51;;;;;;;1.77;0.68;;;18.70;92.80;;;17.74;69.11;100658.84;10173368;28;96641;-86
2023/10/04 03:31:54;;;;;;;2.63;1.02;;;18.80;93.00;;;17.79;69.28;100645.63;10195178;28;98538;-86
2023/10/04 03:37:08;;;;;;;1.52;0.73;;;18.80;93.00;;;17.72;70.19;100648.28;10189623;28;96969;-86
2023/10/04 03:42:12;;;;;;;2.03;0.73;;;18.80;93.30;;;17.76;70.52;100644.19;10207769;28;96534;-87
2023/10/04 03:47:16;;;;;;;1.33;0.55;;;18.80;93.50;;;17.77;71.27;100636.94;10227998;28;96872;-86
2023/10/04 03:52:22;;;;;;;4.68;0.93;;;18.80;93.60;;;17.72;71.24;100642.91;10224585;28;96695;-86
2023/10/04 03:57:25;;;;;;;1.00;0.50;;;18.80;93.60;;;17.69;71.27;100654.03;10222325;28;96587;-87
2023/10/04 04:02:30;;;;;;;1.77;0.60;;;18.70;93.60;;;17.68;71.47;100663.13;10190126;28;98297;-86
2023/10/04 04:07:34;;;;;;;2.92;0.80;;;18.70;93.70;;;17.61;71.25;100662.28;10209194;28;100013;-87
2023/10/04 04:12:40;;;;;;;1.23;0.52;;;18.60;93.60;;;17.58;71.54;100668.09;10194263;28;96898;-86
2023/10/04 04:17:45;;;;;;;2.72;0.55;;;18.60;93.60;;;17.51;71.78;100672.59;10209915;28;98289;-87
2023/10/04 04:22:53;;;;;;;1.20;0.50;;;18.50;93.70;;;17.46;71.19;100675.91;10177962;28;97339;-86
2023/10/04 04:27:57;;;;;;;1.85;0.80;;;18.50;93.40;;;17.45;70.40;100671.53;10217449;28;98547;-87
2023/10/04 04:33:04;;;;;;;2.67;0.40;;;18.50;93.20;;;17.46;68.62;100678.59;10196936;28;98722;-86
2023/10/04 04:48:29;;;;;;;1.38;0.40;;;18.50;91.60;;;17.46;66.83;100713.50;10200016;28;97977;-87
2023/10/04 04:53:33;;;;;;;1.67;0.47;;;18.50;91.80;;;17.42;66.77;100719.47;10207253;28;96683;-86
2023/10/04 04:58:37;;;;;;;1.90;0.50;;;18.50;91.50;;;17.39;65.95;100704.56;10176444;28;96700;-87
2023/10/04 05:03:42;;;;;;;1.42;0.50;;;18.40;91.30;;;17.36;65.67;100711.19;10203477;28;96840;-86
2023/10/04 05:08:47;;;;;;;1.23;0.40;;;18.40;91.10;;;17.33;65.70;100721.50;10200064;28;99087;-87
2023/10/04 05:13:53;;;;;;;1.85;0.70;;;18.40;91.00;;;17.29;64.95;100747.13;10231280;28;96588;-85
2023/10/04 05:18:58;;;;;;;2.88;0.40;;;18.40;90.70;;;17.26;65.37;100772.50;10217064;28;98907;-89
2023/10/04 05:24:03;;;;;;;1.50;0.60;;;18.30;90.90;;;17.21;65.49;100796.41;10170731;28;97650;-85
2023/10/04 05:29:08;;;;;;;0.95;0.38;;;18.30;90.90;;;17.21;65.05;100819.75;10216385;28;97546;-84
2023/10/04 05:34:11;;;;;;;1.88;0.50;;;18.30;90.80;;;17.15;64.88;100815.19;10214277;28;97966;-84
2023/10/04 05:39:16;;;;;;;1.58;0.40;;;18.20;90.60;;;17.07;64.12;100814.31;10209823;28;96488;-84
2023/10/04 05:44:19;;;;;;;1.40;0.52;;;18.20;90.40;;;17.03;64.58;100839.91;10219029;28;98011;-85
2023/10/04 05:49:23;;;;;;;1.60;0.80;;;18.10;90.40;;;16.97;63.83;100856.78;10216871;28;98884;-85
2023/10/04 05:54:27;;;;;;;1.52;0.47;;;18.10;90.00;;;16.92;64.23;100866.44;10209026;28;98464;-85
2023/10/04 05:59:31;;;;;;;2.63;0.50;;;18.00;90.00;;;16.87;63.88;100887.66;10215179;28;96567;-85
2023/10/04 06:04:37;;;;;;;2.53;0.47;;;18.00;89.90;;;16.84;63.67;100903.13;10234140;28;96566;-86
2023/10/04 06:09:42;;;;;;;1.83;0.60;;;18.00;90.10;;;16.79;62.99;100913.63;10225212;28;96823;-85
2023/10/04 06:14:45;;;;;;;2.15;0.50;;;17.90;89.20;;;16.73;62.72;100929.63;10223361;28;97327;-84
2023/10/04 06:19:54;;;;;;;1.67;0.55;;;17.80;89.00;;;16.74;63.49;100936.69;10181848;28;96967;-84
2023/10/04 06:24:58;;;;;;;1.25;0.40;;;17.80;89.50;;;16.69;62.99;100950.63;10232248;28;97953;-85
2023/10/04 06:30:03;;;;;;;1.67;0.45;;;17.80;89.10;;;16.59;62.40;100947.41;10225579;28;96980;-85
2023/10/04 06:35:08;;;;;;;2.83;0.60;;;17.70;87.80;;;16.50;62.08;100935.16;10203203;28;97082;-84
2023/10/04 06:40:15;;;;;;;1.58;0.60;;;17.60;87.60;;;16.42;60.73;100944.09;10231112;28;97652;-85
2023/10/04 06:45:22;;;;;;;2.45;0.60;;;17.50;86.30;;;16.36;60.99;100928.75;10181447;28;96601;-85
2023/10/04 06:50:38;;;;;;;1.70;0.63;;;17.40;86.20;;;16.30;60.70;100941.06;10215231;28;96773;-84
2023/10/04 06:55:43;;;;;;;1.63;0.57;;;17.40;86.30;;;16.25;60.90;100932.78;10224868;28;96661;-84
2023/10/04 07:00:47;;;;;;;1.83;0.38;;;17.30;86.10;;;16.20;61.30;100948.59;10232752;28;97601;-85
2023/10/04 07:05:51;;;;;;;1.08;0.40;;;17.30;86.60;;;16.12;61.87;100967.44;10227828;28;98216;-85
2023/10/04 07:10:56;;;;;;;1.63;0.50;;;17.20;87.20;;;16.04;62.62;100962.19;10253079;28;96723;-86
2023/10/04 07:15:59;;;;;;;1.77;0.40;;;17.10;87.90;;;15.96;63.32;100955.06;10228951;28;97403;-85
2023/10/04 07:21:03;;;;;;;1.98;0.40;;;17.00;88.40;;;15.91;64.33;100956.66;10220119;28;96597;-85
2023/10/04 07:26:09;;;;;;;0.77;0.40;;;17.00;89.10;;;15.92;64.71;100960.97;10191584;28;97970;-87
2023/10/04 07:31:14;;;;;;;1.38;0.50;;;17.00;89.40;;;15.94;64.92;100954.41;10212074;28;96823;-85
2023/10/04 07:36:19;;;;;;;1.15;0.60;;;17.00;89.70;;;15.98;64.79;100960.25;10221326;28;96741;-85
2023/10/04 07:41:23;;;;;;;1.13;0.50;;;17.00;89.60;;;16.11;64.59;100981.03;10222967;28;97622;-85
2023/10/04 07:46:28;;;;;;;2.78;0.50;;;17.20;89.50;;;16.37;64.61;100984.06;10222801;28;97853;-86
2023/10/04 07:51:32;;;;;;;1.63;0.40;;;17.40;89.60;;;16.65;63.92;100980.72;10242858;28;96985;-84
2023/10/04 07:56:36;;;;;;;1.17;0.47;;;17.70;89.20;;;16.81;63.13;100989.41;10216680;28;96846;-86
2023/10/04 08:01:40;;;;;;;1.35;0.40;;;17.90;88.50;;;16.80;62.20;100984.22;10221131;28;96586;-85
2023/10/04 08:06:49;;;;;;;0.85;0.47;;;17.90;87.40;;;16.66;62.35;100988.56;10205750;28;96591;-85
2023/10/04 08:11:53;;;;;;;0.90;0.63;;;17.70;87.70;;;16.54;63.00;100998.13;10218066;28;96667;-86
2023/10/04 08:16:58;;;;;;;1.17;0.40;;;17.60;88.10;;;16.60;64.70;101019.66;10210568;28;96721;-85
2023/10/04 08:22:03;;;;;;;1.13;0.50;;;17.60;89.20;;;16.94;64.57;101020.09;10223553;28;97541;-86
2023/10/04 08:27:06;;;;;;;0.73;0.25;;;17.90;89.20;;;17.30;62.71;101001.25;10209311;28;96889;-86
2023/10/04 08:32:10;;;;;;;1.20;0.50;;;18.30;88.40;;;17.62;61.26;100983.75;10190916;28;96579;-89
2023/10/04 08:37:15;;;;;;;0.80;0.40;;;18.60;86.90;;;17.90;60.59;100987.31;10208522;28;97202;-87
2023/10/04 08:42:19;;;;;;;0.88;0.28;;;18.80;86.20;;;18.22;59.31;101016.47;10208444;28;96731;-87
2023/10/04 08:47:24;;;;;;;1.58;0.70;;;19.20;85.60;;;18.48;58.19;101000.47;10211155;28;97398;-86
2023/10/04 08:52:41;;;;;;;0.82;0.45;;;19.50;84.30;;;18.74;57.31;100993.56;10180858;28;96648;-86
2023/10/04 08:57:45;;;;;;;1.52;0.68;;;19.70;83.30;;;18.99;54.03;101002.75;10209022;28;96675;-87
2023/10/04 09:02:50;;;;;;;1.52;0.50;;;20.00;81.40;;;19.19;53.28;101002.78;10225240;28;96704;-86
2023/10/04 09:07:55;;;;;;;10.35;1.30;;;20.20;80.50;;;19.46;52.73;101015.25;10188797;28;97748;-86
2023/10/04 09:13:03;;;;;;;1.73;0.60;;;20.50;79.00;;;19.69;52.15;101005.97;10226268;28;97147;-87
2023/10/04 09:18:08;;;;;;;1.33;0.40;;;20.80;78.00;;;19.90;51.84;101013.81;10161865;28;97253;-86
2023/10/04 09:23:22;;;;;;;1.27;0.50;;;21.00;77.80;;;20.19;51.20;101019.78;10186961;28;97060;-88
2023/10/04 09:28:40;;;;;;;1.58;0.40;;;21.30;76.20;;;20.39;50.10;101035.94;10166124;28;97660;-86
2023/10/04 09:33:44;;;;;;;0.80;0.30;;;21.40;75.70;;;20.46;50.14;101036.78;10202890;28;96784;-86
2023/10/04 09:39:09;;;;;;;2.05;0.60;;;21.40;76.40;;;20.56;49.50;101043.38;10203523;28;96601;-87
2023/10/04 09:44:31;;;;;;;1.25;0.40;;;21.50;74.90;;;20.78;49.42;101040.41;10204063;28;98713;-87
2023/10/04 09:49:37;;;;;;;2.05;0.50;;;21.70;74.90;;;20.78;48.29;101043.09;10235010;28;98516;-86
2023/10/04 09:54:41;;;;;;;1.60;0.50;;;21.70;74.20;;;20.75;49.08;101054.31;10205341;28;96920;-86
2023/10/04 09:59:48;;;;;;;1.80;0.52;;;21.70;74.40;;;20.61;48.69;101045.44;10221434;28;97067;-86
2023/10/04 10:04:52;;;;;;;2.17;0.50;;;21.60;73.60;;;20.67;48.24;101062.66;10230646;28;97017;-88
2023/10/04 10:10:11;;;;;;;1.40;0.57;;;21.60;73.10;;;20.66;48.21;101063.72;10202496;28;96738;-86
2023/10/04 10:15:24;;;;;;;1.30;0.50;;;21.70;72.90;;;20.55;48.80;101051.69;10223209;28;96621;-87
2023/10/04 10:20:29;;;;;;;2.60;0.68;;;21.60;73.70;;;20.46;48.76;101063.78;10225432;28;96860;-86
2023/10/04 10:25:33;;;;;;;0.45;0.30;;;21.50;73.60;;;20.13;49.24;101059.25;10224209;28;96571;-86
2023/10/04 10:30:37;;;;;;;2.22;0.60;;;21.20;73.10;;;19.97;49.04;101054.25;10237950;28;98808;-88
2023/10/04 10:35:52;;;;;;;1.38;0.60;;;21.10;73.20;;;19.74;48.80;101052.84;10206516;28;97513;-87
2023/10/04 10:40:56;;;;;;;1.83;1.08;;;20.80;72.80;;;19.39;49.11;101052.16;10221167;28;97352;-87
2023/10/04 10:46:28;;;;;;;2.28;0.63;;;20.50;72.30;;;19.19;50.39;101051.25;10225677;28;96569;-86
2023/10/04 10:51:43;;;;;;;2.47;0.55;;;20.30;73.90;;;19.18;50.31;101055.84;10223680;28;96901;-86
2023/10/04 10:56:47;;;;;;;1.38;0.57;;;20.20;74.10;;;19.14;48.91;101049.22;10226368;28;97938;-86
2023/10/04 11:01:51;;;;;;;1.02;0.38;;;20.20;72.20;;;19.03;49.46;101041.72;10207314;28;98676;-86
2023/10/04 11:06:55;;;;;;;0.90;0.40;;;20.10;73.10;;;19.19;48.82;101043.19;10188818;28;96888;-86
2023/10/04 11:12:00;;;;;;;1.30;0.45;;;20.30;72.00;;;19.34;48.20;101032.25;10177388;28;96539;-86
2023/10/04 11:17:04;;;;;;;1.40;0.40;;;20.40;71.60;;;19.84;47.37;101011.97;10156662;28;98393;-86
2023/10/04 11:22:10;;;;;;;1.92;0.70;;;20.90;71.40;;;20.36;46.10;101014.78;10176875;28;98468;-87
2023/10/04 11:27:22;;;;;;;1.52;0.47;;;21.40;69.50;;;20.95;42.32;101006.44;10140738;28;96589;-86
2023/10/04 11:32:31;;;;;;;1.45;0.70;;;21.90;65.60;;;21.10;42.53;100996.16;10180921;28;96735;-86
2023/10/04 11:37:50;;;;;;;1.20;0.50;;;22.00;65.40;;;21.38;42.88;101020.13;10150262;28;98424;-87
2023/10/04 11:43:03;;;;;;;0.93;0.50;;;22.10;66.40;;;21.51;41.53;101002.16;10172510;28;97187;-86
2023/10/04 11:48:10;;;;;;;1.40;0.50;;;22.20;64.70;;;21.38;42.12;101006.59;10198246;28;96733;-86
2023/10/04 11:53:34;;;;;;;0.90;0.38;;;22.00;65.80;;;21.35;42.04;101003.50;10155843;28;96757;-85
2023/10/04 11:58:57;;;;;;;1.05;0.40;;;22.00;65.40;;;21.01;42.65;101007.47;10198176;28;98864;-86
2023/10/04 12:04:02;;;;;;;1.13;0.50;;;21.80;65.60;;;20.55;42.83;101025.53;10165219;28;96727;-86
2023/10/04 12:09:08;;;;;;;1.67;0.55;;;21.50;65.30;;;20.11;43.73;101031.66;10199283;28;96865;-85
2023/10/04 12:14:11;;;;;;;2.72;0.60;;;21.10;66.20;;;19.80;43.77;101043.09;10216804;28;96977;-85
2023/10/04 12:19:17;;;;;;;1.58;0.40;;;20.80;65.90;;;19.57;43.73;101053.44;10216786;28;97350;-85
2023/10/04 12:24:20;;;;;;;1.85;0.50;;;20.50;65.70;;;19.37;44.48;101040.75;10221887;28;97676;-85
2023/10/04 12:29:27;;;;;;;0.88;0.45;;;20.40;66.60;;;19.29;45.04;101040.94;10200885;28;96647;-85
2023/10/04 12:34:31;;;;;;;1.85;0.50;;;20.30;67.80;;;19.18;46.05;101039.66;10216476;28;98797;-86
2023/10/04 12:39:38;;;;;;;2.60;0.73;;;20.20;67.60;;;19.10;46.08;101045.25;10205461;28;96690;-85
2023/10/04 12:44:42;;;;;;;0.63;0.40;;;20.10;68.40;;;19.08;46.14;101055.41;10220349;28;97501;-85
2023/10/04 12:49:46;;;;;;;2.15;0.50;;;20.10;68.00;;;19.22;46.05;101053.56;10200656;28;96824;-86
2023/10/04 12:54:51;;;;;;;3.03;0.40;;;20.20;68.20;;;19.26;45.36;101057.53;10182862;28;97994;-85
2023/10/04 12:59:55;;;;;;;1.30;0.40;;;20.30;67.00;;;19.21;45.96;101049.22;10205852;28;97696;-85
2023/10/04 13:04:59;;;;;;;1.45;0.50;;;20.20;67.90;;;19.19;45.76;101021.63;10186113;28;96495;-85
2023/10/04 13:10:09;;;;;;;0.85;0.32;;;20.30;67.80;;;19.19;45.77;101035.09;10150834;28;98680;-85
2023/10/04 13:15:14;;;;;;;1.77;0.63;;;20.30;67.90;;;19.19;45.52;101024.31;10153158;28;98803;-85
2023/10/04 13:20:18;;;;;;;1.83;0.50;;;20.30;67.70;;;19.20;46.07;101010.66;10165950;28;98268;-86
2023/10/04 13:25:23;;;;;;;1.75;0.68;;;20.30;67.90;;;19.12;44.62;101028.88;10183215;28;97439;-85
2023/10/04 13:30:31;;;;;;;1.45;0.30;;;20.30;67.10;;;18.94;45.46;101042.91;10177788;28;97472;-85
2023/10/04 13:35:35;;;;;;;1.17;0.40;;;20.10;67.20;;;18.70;44.74;101041.56;10169911;28;97778;-86
2023/10/04 13:40:39;;;;;;;1.92;0.50;;;19.90;65.70;;;18.35;46.48;101055.06;10183553;28;96747;-86
2023/10/04 13:45:46;;;;;;;1.48;0.57;;;19.50;67.60;;;18.04;47.69;101060.81;10166268;28;96628;-85
2023/10/04 13:50:51;;;;;;;1.20;0.40;;;19.20;68.70;;;17.76;49.19;101060.00;10155880;28;97525;-85
2023/10/04 13:55:57;;;;;;;1.60;0.63;;;18.90;70.40;;;17.51;49.80;101072.94;10132213;28;98938;-84
2023/10/04 14:01:04;;;;;;;1.25;0.50;;;18.60;71.20;;;17.30;50.47;101074.63;10161224;28;96758;-84
2023/10/04 14:06:12;;;;;;;1.75;0.38;;;18.40;71.70;;;17.17;51.27;101093.28;10165755;28;97533;-84
2023/10/04 14:11:16;;;;;;;1.27;0.40;;;18.30;72.30;;;17.03;52.58;101086.94;10151834;28;96716;-86
2023/10/04 14:16:23;;;;;;;2.65;0.43;;;18.10;74.80;;;16.77;56.35;101086.59;10198030;28;98056;-84
2023/10/04 14:21:27;;;;;;;1.35;0.47;;;17.90;77.80;;;16.47;58.26;101080.38;10194002;28;97559;-85
2023/10/04 14:26:32;;;;;;;2.03;0.65;;;17.60;79.60;;;16.21;58.97;101091.56;10204901;28;96593;-86
2023/10/04 14:31:37;;;;;;;2.42;0.40;;;17.30;80.20;;;16.08;59.89;101094.03;10215640;28;97688;-86
2023/10/04 14:36:42;;;;;;;0.93;0.50;;;17.10;80.10;;;15.96;62.26;101096.31;10228495;28;97321;-85
2023/10/04 14:41:45;;;;;;;1.73;0.60;;;17.10;82.70;;;15.76;64.89;101069.16;10224224;28;96683;-85
2023/10/04 14:46:49;;;;;;;1.30;0.85;;;16.90;84.80;;;15.55;66.79;101080.53;10200485;28;96737;-85
2023/10/04 14:51:53;;;;;;;4.88;0.50;;;16.70;85.30;;;15.38;68.57;101084.34;10211988;28;96775;-85
2023/10/04 14:56:57;;;;;;;1.33;0.60;;;16.40;87.80;;;15.18;68.39;101070.56;10223679;28;98092;-85
2023/10/04 15:02:00;;;;;;;2.72;0.70;;;16.30;87.70;;;14.99;67.04;101053.09;10223376;28;97523;-85
2023/10/04 15:07:06;;;;;;;1.20;0.40;;;16.10;87.10;;;14.92;67.14;101060.16;10188880;28;98332;-85
2023/10/04 15:12:10;;;;;;;3.03;0.65;;;16.00;87.20;;;14.99;67.56;101058.44;10157804;28;96998;-85
2023/10/04 15:17:15;;;;;;;1.95;0.45;;;16.10;86.80;;;15.15;68.42;101069.06;10149982;28;96692;-85
2023/10/04 15:22:19;;;;;;;2.15;0.60;;;16.20;87.40;;;15.26;67.61;101076.69;10105619;28;98074;-85
2023/10/04 15:27:23;;;;;;;1.52;0.40;;;16.40;87.20;;;15.34;66.42;101083.00;10170095;28;96521;-85
2023/10/04 15:32:28;;;;;;;2.33;0.80;;;16.40;86.40;;;15.34;66.16;101080.34;10160139;28;97975;-86
2023/10/04 15:37:31;;;;;;;1.35;0.57;;;16.40;86.00;;;15.23;65.01;101082.44;10154808;28;96686;-86
2023/10/04 15:42:35;;;;;;;4.03;0.47;;;16.40;85.30;;;15.09;63.53;101069.78;10165979;28;96619;-86
2023/10/04 15:47:40;;;;;;;1.65;0.60;;;16.20;84.30;;;14.97;63.56;101068.50;10131281;28;97916;-86
2023/10/04 15:52:46;;;;;;;15.52;8.18;;;16.10;84.30;;;14.85;63.89;101059.19;10144342;28;98580;-86
2023/10/04 15:57:50;;;;;;;2.58;0.90;;;16.00;84.50;;;14.75;64.23;101080.81;10159345;28;97486;-86
2023/10/04 16:02:55;;;;;;;5.35;3.38;;;15.90;84.60;;;14.62;64.99;101070.66;10125778;28;96915;-87
2023/10/04 16:07:58;;;;;;;6.57;4.60;;;15.80;85.00;;;14.55;65.07;101083.06;10166094;28;96759;-86
2023/10/04 16:13:04;;;;;;;12.98;11.77;;;15.70;85.30;;;14.44;65.09;101088.75;10210040;28;96571;-86
2023/10/04 16:18:11;;;;;;;6.15;4.63;;;15.60;85.20;;;14.37;65.35;101091.28;10192433;28;97910;-87
2023/10/04 16:23:15;;;;;;;3.60;2.50;;;15.50;85.30;;;14.29;65.63;101090.47;10194943;28;96734;-87
2023/10/04 16:28:19;;;;;;;2.35;1.10;;;15.50;86.20;;;14.19;65.57;101099.50;10212171;28;97605;-87
2023/10/04 16:33:23;;;;;;;3.67;2.20;;;15.40;85.60;;;14.12;65.96;101103.84;10220712;28;98927;-86
2023/10/04 16:38:31;;;;;;;1.58;1.00;;;15.30;85.70;;;14.02;66.03;101113.88;10186458;28;96606;-86
2023/10/04 16:43:35;;;;;;;3.65;1.20;;;15.20;85.80;;;13.90;66.14;101115.22;10229271;28;98138;-86
2023/10/04 16:48:39;;;;;;;1.98;1.20;;;15.10;85.90;;;13.77;66.57;101120.22;10196188;28;97389;-86
2023/10/04 16:53:44;;;;;;;4.07;1.08;;;15.00;86.40;;;13.61;66.75;101126.38;10193637;28;98380;-86
2023/10/04 16:58:48;;;;;;;3.20;1.20;;;14.80;86.90;;;13.48;67.15;101118.84;10218652;28;97456;-85
2023/10/04 17:03:52;;;;;;;1.90;0.87;;;14.60;86.90;;;13.41;67.62;101109.81;10184916;28;96620;-86
2023/10/04 17:08:55;;;;;;;1.33;0.83;;;14.60;87.20;;;13.35;67.92;101107.81;10188312;28;97411;-85
2023/10/04 17:13:59;;;;;;;1.63;0.50;;;14.50;87.60;;;13.37;67.79;101122.69;10243373;28;96882;-86
2023/10/04 17:19:03;;;;;;;2.08;0.98;;;14.50;87.50;;;13.38;67.66;101102.16;10211467;28;96572;-86
2023/10/04 17:24:07;;;;;;;2.30;0.70;;;14.50;87.40;;;13.40;67.69;101108.16;10224521;28;97009;-85
2023/10/04 17:29:11;;;;;;;1.77;0.60;;;14.60;87.50;;;13.42;67.52;101102.66;10229172;28;96460;-85
2023/10/04 17:34:15;;;;;;;1.08;0.40;;;14.60;87.20;;;13.44;67.39;101112.19;10197567;28;96617;-85
2023/10/04 17:39:18;;;;;;;2.47;1.20;;;14.60;87.20;;;13.41;67.76;101109.81;10206525;28;96871;-85
2023/10/04 17:44:22;;;;;;;1.50;0.73;;;14.60;87.20;;;13.36;68.06;101098.81;10221720;28;98256;-85
2023/10/04 17:49:29;;;;;;;3.03;0.80;;;14.60;87.30;;;13.37;68.01;101108.47;10220705;28;96871;-85
2023/10/04 17:54:33;;;;;;;2.53;0.57;;;14.60;87.10;;;13.35;68.24;101107.81;10222949;28;96401;-85
2023/10/04 17:59:38;;;;;;;3.37;1.87;;;14.60;87.00;;;13.27;68.87;101115.81;10222386;28;96617;-85
2023/10/04 18:04:46;;;;;;;5.80;2.00;;;14.60;87.40;;;13.15;69.31;101122.41;10202087;28;96632;-85
2023/10/04 18:09:53;;;;;;;4.77;2.10;;;14.50;87.40;;;12.97;69.51;101119.84;10207734;28;96711;-85
2023/10/04 18:14:57;;;;;;;4.10;1.57;;;14.40;87.60;;;12.82;70.79;101122.28;10234342;28;98510;-84
2023/10/04 18:20:07;;;;;;;3.27;1.33;;;14.20;87.80;;;12.64;71.13;101132.19;10207767;28;98727;-84
2023/10/04 18:25:12;;;;;;;3.17;1.33;;;14.00;88.40;;;12.42;71.26;101145.09;10203451;28;96730;-84
2023/10/04 18:30:15;;;;;;;2.37;1.00;;;13.70;88.60;;;12.24;73.05;101142.47;10214398;28;96623;-84
2023/10/04 18:35:20;;;;;;;2.07;0.90;;;13.60;89.60;;;11.98;74.89;101142.41;10246163;28;97398;-85
2023/10/04 18:40:27;;;;;;;1.97;0.80;;;13.30;91.00;;;11.85;75.86;101146.47;10196088;28;97321;-84
2023/10/04 18:45:30;;;;;;;2.17;0.70;;;13.10;91.10;;;11.88;76.18;101136.34;10186371;28;97574;-85
2023/10/04 18:50:34;;;;;;;1.97;0.80;;;13.10;91.70;;;12.07;75.63;101147.81;10192110;28;96904;-84
2023/10/04 18:55:40;;;;;;;2.70;0.90;;;13.30;91.50;;;12.29;74.91;101139.31;10233577;28;96659;-85
2023/10/04 19:00:46;;;;;;;2.23;0.60;;;13.50;91.70;;;12.53;74.01;101150.16;10199738;28;97045;-84
2023/10/04 19:05:52;;;;;;;2.07;0.67;;;13.70;91.10;;;12.75;73.03;101162.09;10207617;28;97693;-85
2023/10/04 19:10:59;;;;;;;1.43;0.50;;;13.90;90.80;;;12.89;72.56;101163.31;10232550;28;97458;-86
2023/10/04 19:16:03;;;;;;;1.50;0.60;;;14.10;90.50;;;12.93;72.35;101164.69;10212700;28;97598;-86
2023/10/04 19:21:08;;;;;;;2.33;0.70;;;14.20;90.20;;;12.88;72.33;101167.00;10227449;28;96583;-86
2023/10/04 19:26:17;;;;;;;2.20;0.70;;;14.20;90.20;;;12.78;72.65;101172.47;10202525;28;97589;-85
2023/10/04 19:31:21;;;;;;;2.00;0.63;;;14.10;90.20;;;12.63;73.02;101178.53;10211954;28;97541;-85
2023/10/04 19:36:25;;;;;;;1.40;0.80;;;14.00;90.10;;;12.44;73.11;101185.72;10231405;28;96974;-86
2023/10/04 19:41:31;;;;;;;4.00;0.80;;;13.80;90.20;;;12.15;74.19;101187.84;10227026;28;96713;-85
2023/10/04 19:46:37;;;;;;;1.93;0.90;;;13.50;90.70;;;11.79;75.73;101185.16;10223186;28;96570;-85
2023/10/04 19:51:41;;;;;;;2.47;1.07;;;13.10;91.20;;;11.52;76.48;101180.72;10201703;28;96652;-85
2023/10/04 19:56:45;;;;;;;3.03;0.90;;;12.80;91.40;;;11.34;76.67;101175.38;10207622;28;96673;-85
2023/10/04 20:01:52;;;;;;;2.40;0.80;;;12.60;91.50;;;11.15;81.34;101170.97;10194437;28;96891;-85
2023/10/04 20:06:57;;;;;;;3.60;1.40;;;12.50;94.20;;;11.40;84.05;101180.09;10190847;28;99771;-86
2023/10/04 20:12:01;;;;;;;1.13;0.63;;;12.60;95.20;;;11.76;84.11;101190.78;10205070;28;97559;-86
2023/10/04 20:17:06;;;;;;;2.20;0.80;;;12.90;95.20;;;12.04;83.25;101184.41;10222827;28;99003;-85
2023/10/04 20:22:11;;;;;;;1.63;0.63;;;13.20;95.00;;;12.29;82.29;101166.81;10200427;28;96967;-86
2023/10/04 20:27:16;;;;;;;1.93;0.70;;;13.50;94.70;;;12.48;81.39;101171.13;10190284;28;96608;-85
2023/10/04 20:32:20;;;;;;;1.83;0.80;;;13.60;94.20;;;12.58;80.35;101166.50;10179149;28;96716;-85
2023/10/04 20:37:24;;;;;;;1.90;0.60;;;13.70;94.00;;;12.64;79.93;101164.19;10193988;28;96526;-85
2023/10/04 20:42:28;;;;;;;1.40;0.73;;;13.80;93.80;;;12.65;79.75;101157.84;10188595;28;97482;-85
2023/10/04 20:47:34;;;;;;;2.23;0.70;;;13.80;93.80;;;12.68;79.74;101149.56;10190884;28;97562;-85
2023/10/04 20:52:42;;;;;;;1.70;0.67;;;13.90;93.80;;;12.73;79.52;101157.94;10195065;28;96565;-85
2023/10/04 20:57:45;;;;;;;2.63;1.27;;;13.90;93.50;;;12.72;79.14;101157.09;10222609;28;96580;-85
2023/10/04 21:02:49;;;;;;;2.70;1.13;;;13.90;93.20;;;12.69;78.82;101153.88;10213563;28;96591;-85
2023/10/04 21:07:54;;;;;;;1.80;0.80;;;13.90;93.10;;;12.63;78.67;101151.84;10219604;28;96741;-85